MSC Levina — 3FJR8 — position and weather

sailwx.info

Track history (hours):
 
Tides and Currents Weather Stations Pressure Air Temp Water Temp Dewpoint Dewpoint Depression Visibility Wind Speed Wind Dir Waves Ship Positions

MSC Levina

Last reported at 2015-May-28 12:32 UTC. Time now 2015-May-28 22:08 UTC.
Position N 28°08' W 015°25'.

Length 227.6 m; beam 32.2 m; draft 12.1 m.

Type: Cargo ship. MMSI: 355609000.

Date/timePositionNaut miles runAvg speedWind from/ knotsBaromVisibWave heightAir tempDewpointWater temp
2015-May-28 12:32N 28°08' W 015°25'0 0.0
2015-May-28 11:32N 28°08' W 015°25'0 0.0
2015-May-28 10:32N 28°08' W 015°25'0 0.0
2015-May-28 09:32N 28°08' W 015°25'0 0.0
2015-May-28 08:23N 28°08' W 015°25'0 0.0
2015-May-28 07:26N 28°08' W 015°25'0 0.0
2015-May-28 06:31N 28°08' W 015°25'3 3.5
2015-May-28 05:33N 28°07' W 015°21'8 7.7
2015-May-28 04:33N 28°13' W 015°16'1515.0
2015-May-28 03:33N 28°24' W 015°06'1515.1
2015-May-28 02:33N 28°36' W 014°54'1615.1
2015-May-28 01:28N 28°48' W 014°42'41115.0
2015-May-26 22:08N 34°01' W 009°29'814.3
2015-May-26 21:33N 34°06' W 009°21'1414.3
2015-May-26 20:33N 34°15' W 009°08'3714.8
2015-May-26 18:03N 34°36' W 008°31'815.4
2015-May-26 17:33N 34°40' W 008°23'1615.6
2015-May-26 16:33N 34°50' W 008°08'10915.5
2015-May-26 09:33N 35°54' W 006°21'3715.5
2015-May-26 07:10N 35°58' W 005°35'914.8
2015-May-26 06:33N 36°01' W 005°25'1414.5
2015-May-26 05:33N 36°03' W 005°07'13015.8
2015-May-25 21:20N 36°23' W 002°29'1315.9
2015-May-25 20:33N 36°26' W 002°13'3215.9
2015-May-25 18:33N 36°45' W 001°42'1615.8
2015-May-25 17:32N 36°56' W 001°27'2316.2
2015-May-25 16:06N 37°11' W 001°05'915.8
2015-May-25 15:33N 37°17' W 000°57'1616.2
2015-May-25 14:33N 37°27' W 000°41'1615.7
2015-May-25 13:33N 37°40' W 000°29'1515.0
2015-May-25 12:33N 37°51' W 000°17'1615.3
2015-May-25 11:32N 38°05' W 000°07'8211.6
2015-May-25 04:28N 39°26' W 000°20'0 0.0
2015-May-25 02:25N 39°26' W 000°20'0 0.0
2015-May-25 01:31N 39°26' W 000°20'0 0.0
2015-May-25 00:31N 39°26' W 000°20'0 0.0
2015-May-24 23:31N 39°26' W 000°20'0 0.0
2015-May-24 22:22N 39°26' W 000°20'0 0.0
2015-May-24 21:31N 39°26' W 000°20'0 0.0
2015-May-24 20:31N 39°26' W 000°20'0 0.0
2015-May-24 19:31N 39°26' W 000°20'0 0.0
2015-May-24 18:31N 39°26' W 000°20'0 0.0
2015-May-24 17:28N 39°26' W 000°20'0 0.2
2015-May-24 16:31N 39°26' W 000°20'0 0.1
2015-May-24 15:16N 39°26' W 000°20'0 0.0
2015-May-24 14:28N 39°26' W 000°20'0 0.0
2015-May-24 13:31N 39°26' W 000°20'0 0.0
2015-May-24 12:31N 39°26' W 000°20'0 0.0
2015-May-24 11:31N 39°26' W 000°20'0 0.0
2015-May-24 10:31N 39°26' W 000°20'0 0.0
2015-May-24 09:26N 39°26' W 000°20'0 0.0
2015-May-24 08:32N 39°26' W 000°20'0 0.0
2015-May-24 07:23N 39°26' W 000°20'0 0.0
2015-May-24 06:26N 39°26' W 000°20'0 0.0
2015-May-24 05:29N 39°26' W 000°20'2 2.2
2015-May-24 04:33N 39°25' W 000°17'7 7.0
2015-May-24 03:33N 39°26' W 000°08'2315.4
2015-May-24 02:04N 39°44' E 000°08'1017.2
2015-May-24 01:29N 39°54' E 000°08'6 5.4
2015-May-24 00:24N 39°58' E 000°02'45311.3
2015-May-22 08:09N 43°14' E 009°08'1016.2
2015-May-22 07:33N 43°18' E 009°20'1514.8
2015-May-22 06:34N 43°25' E 009°38'1515.0
2015-May-22 05:33N 43°31' E 009°57'1413.5
2015-May-22 04:33N 43°32' E 010°16'3 3.1
2015-May-22 03:33N 43°35' E 010°18'0 0.0
2015-May-22 02:28N 43°35' E 010°18'0 0.0
2015-May-22 01:31N 43°35' E 010°18'0 0.0
2015-May-22 00:31N 43°35' E 010°18'0 0.0
2015-May-21 23:31N 43°35' E 010°18'0 0.0
2015-May-21 22:28N 43°35' E 010°18'0 0.0
2015-May-21 21:31N 43°35' E 010°18'0 0.0
2015-May-21 20:31N 43°35' E 010°18'0 0.0
2015-May-21 19:28N 43°35' E 010°18'0 0.0
2015-May-21 18:31N 43°35' E 010°18'0 0.0
2015-May-21 17:31N 43°35' E 010°18'0 0.0
2015-May-21 16:31N 43°35' E 010°18'0 0.0
2015-May-21 15:31N 43°35' E 010°18'0 0.5
2015-May-21 14:33N 43°34' E 010°18'6 6.5
2015-May-21 13:33N 43°30' E 010°12'6 5.9
2015-May-21 12:33N 43°31' E 010°04'1413.9
2015-May-21 11:33N 43°41' E 009°50'1515.2
2015-May-21 10:33N 43°50' E 009°34'1615.7
2015-May-21 09:33N 43°59' E 009°16'1817.5
2015-May-21 08:33N 44°09' E 008°56'1615.7
2015-May-21 07:33N 44°22' E 008°42'5 3.3
2015-May-21 06:06N 44°25' E 008°47'0 0.0
2015-May-21 05:12N 44°25' E 008°47'0 0.0
2015-May-21 04:18N 44°25' E 008°47'0 0.0
2015-May-21 03:30N 44°25' E 008°47'0 0.0
2015-May-21 02:30N 44°25' E 008°47'0 0.0
2015-May-21 01:18N 44°25' E 008°47'0 0.0
2015-May-21 00:33N 44°25' E 008°47'0 0.0
2015-May-20 23:21N 44°25' E 008°47'0 0.0
2015-May-20 22:30N 44°25' E 008°47'0 0.0
2015-May-20 21:30N 44°25' E 008°47'0 0.0
2015-May-20 20:12N 44°25' E 008°47'0 0.0
2015-May-20 19:24N 44°25' E 008°47'0 0.0
2015-May-20 18:30N 44°25' E 008°47'0 0.0
2015-May-20 17:18N 44°25' E 008°47'0 0.0
2015-May-20 16:30N 44°25' E 008°47'0 0.0
2015-May-20 15:30N 44°25' E 008°47'0 0.0
2015-May-20 14:30N 44°25' E 008°47'0 0.0
2015-May-20 13:30N 44°25' E 008°47'0 0.0
2015-May-20 12:30N 44°25' E 008°47'0 0.0
2015-May-20 11:30N 44°25' E 008°47'0 0.0
2015-May-20 09:33N 44°25' E 008°47'0 0.0
2015-May-20 08:12N 44°25' E 008°47'0 0.0
2015-May-20 07:24N 44°25' E 008°47'0 0.0
2015-May-20 06:30N 44°25' E 008°47'0 0.0
2015-May-20 05:18N 44°25' E 008°47'0 0.0
2015-May-20 04:30N 44°25' E 008°47'0 0.0
2015-May-20 03:33N 44°25' E 008°47'0 0.0
2015-May-20 02:33N 44°25' E 008°47'0 0.0
2015-May-20 01:33N 44°25' E 008°47'0 0.0
2015-May-20 00:24N 44°25' E 008°47'0 0.0
2015-May-19 23:30N 44°25' E 008°47'0 0.0
2015-May-19 22:30N 44°25' E 008°47'0 0.0
2015-May-19 21:33N 44°25' E 008°47'0 0.0
2015-May-19 20:27N 44°25' E 008°47'0 0.0
2015-May-19 19:33N 44°25' E 008°47'0 0.0
2015-May-19 18:30N 44°25' E 008°47'0 0.0
2015-May-19 17:29N 44°25' E 008°47'0 0.0
2015-May-19 16:32N 44°25' E 008°47'0 0.0
2015-May-19 15:32N 44°25' E 008°47'0 0.0
2015-May-19 14:32N 44°25' E 008°47'0 0.0
2015-May-19 13:04N 44°25' E 008°47'0 0.0
2015-May-19 12:31N 44°25' E 008°47'0 0.0
2015-May-19 11:13N 44°25' E 008°47'0 0.0
2015-May-19 10:31N 44°25' E 008°47'0 0.0
2015-May-19 09:31N 44°25' E 008°47'4 4.0
2015-May-19 08:33N 44°23' E 008°43'9 9.4
2015-May-19 07:33N 44°14' E 008°39'1716.6
2015-May-19 06:33N 44°00' E 008°24'4417.7
2015-May-19 04:03N 43°30' E 007°40'918.4
2015-May-19 03:33N 43°24' E 007°30'1818.2
2015-May-19 02:33N 43°12' E 007°11'1918.0
2015-May-19 01:31N 43°00' E 006°52'2316.8
2015-May-19 00:10N 42°50' E 006°24'3317.7
2015-May-18 22:18N 42°57' E 005°40'3318.4
2015-May-18 20:30N 43°11' E 004°59'1112.0
2015-May-18 19:33N 43°22' E 004°58'6 5.8
2015-May-18 18:31N 43°25' E 004°50'0 0.0
2015-May-18 17:28N 43°25' E 004°50'0 0.0
2015-May-18 16:31N 43°25' E 004°50'0 0.0
2015-May-18 15:28N 43°25' E 004°50'0 0.0
2015-May-18 14:28N 43°25' E 004°50'0 0.0
2015-May-18 13:31N 43°25' E 004°50'  
Track history (hours):
 
Tides and Currents Weather Stations Pressure Air Temp Water Temp Dewpoint Dewpoint Depression Visibility Wind Speed Wind Dir Waves Ship Positions

MSC Levina

Last reported at 2015-May-28 12:32 UTC. Time now 2015-May-28 22:08 UTC.
Position N 28°08' W 015°25'.

Length 227.6 m; beam 32.2 m; draft 12.1 m.

Type: Cargo ship. MMSI: 355609000.

Date/timePositionNaut miles runAvg speedWind from/ knotsBaromVisibWave heightAir tempDewpointWater temp
2015-May-28 12:32N 28°08' W 015°25'0 0.0
2015-May-28 11:32N 28°08' W 015°25'0 0.0
2015-May-28 10:32N 28°08' W 015°25'0 0.0
2015-May-28 09:32N 28°08' W 015°25'0 0.0
2015-May-28 08:23N 28°08' W 015°25'0 0.0
2015-May-28 07:26N 28°08' W 015°25'0 0.0
2015-May-28 06:31N 28°08' W 015°25'3 3.5
2015-May-28 05:33N 28°07' W 015°21'8 7.7
2015-May-28 04:33N 28°13' W 015°16'1515.0
2015-May-28 03:33N 28°24' W 015°06'1515.1
2015-May-28 02:33N 28°36' W 014°54'1615.1
2015-May-28 01:28N 28°48' W 014°42'41115.0
2015-May-26 22:08N 34°01' W 009°29'814.3
2015-May-26 21:33N 34°06' W 009°21'1414.3
2015-May-26 20:33N 34°15' W 009°08'3714.8
2015-May-26 18:03N 34°36' W 008°31'815.4
2015-May-26 17:33N 34°40' W 008°23'1615.6
2015-May-26 16:33N 34°50' W 008°08'10915.5
2015-May-26 09:33N 35°54' W 006°21'3715.5
2015-May-26 07:10N 35°58' W 005°35'914.8
2015-May-26 06:33N 36°01' W 005°25'1414.5
2015-May-26 05:33N 36°03' W 005°07'13015.8
2015-May-25 21:20N 36°23' W 002°29'1315.9
2015-May-25 20:33N 36°26' W 002°13'3215.9
2015-May-25 18:33N 36°45' W 001°42'1615.8
2015-May-25 17:32N 36°56' W 001°27'2316.2
2015-May-25 16:06N 37°11' W 001°05'915.8
2015-May-25 15:33N 37°17' W 000°57'1616.2
2015-May-25 14:33N 37°27' W 000°41'1615.7
2015-May-25 13:33N 37°40' W 000°29'1515.0
2015-May-25 12:33N 37°51' W 000°17'1615.3
2015-May-25 11:32N 38°05' W 000°07'8211.6
2015-May-25 04:28N 39°26' W 000°20'0 0.0
2015-May-25 02:25N 39°26' W 000°20'0 0.0
2015-May-25 01:31N 39°26' W 000°20'0 0.0
2015-May-25 00:31N 39°26' W 000°20'0 0.0
2015-May-24 23:31N 39°26' W 000°20'0 0.0
2015-May-24 22:22N 39°26' W 000°20'0 0.0
2015-May-24 21:31N 39°26' W 000°20'0 0.0
2015-May-24 20:31N 39°26' W 000°20'0 0.0
2015-May-24 19:31N 39°26' W 000°20'0 0.0
2015-May-24 18:31N 39°26' W 000°20'0 0.0
2015-May-24 17:28N 39°26' W 000°20'0 0.2
2015-May-24 16:31N 39°26' W 000°20'0 0.1
2015-May-24 15:16N 39°26' W 000°20'0 0.0
2015-May-24 14:28N 39°26' W 000°20'0 0.0
2015-May-24 13:31N 39°26' W 000°20'0 0.0
2015-May-24 12:31N 39°26' W 000°20'0 0.0
2015-May-24 11:31N 39°26' W 000°20'0 0.0
2015-May-24 10:31N 39°26' W 000°20'0 0.0
2015-May-24 09:26N 39°26' W 000°20'0 0.0
2015-May-24 08:32N 39°26' W 000°20'0 0.0
2015-May-24 07:23N 39°26' W 000°20'0 0.0
2015-May-24 06:26N 39°26' W 000°20'0 0.0
2015-May-24 05:29N 39°26' W 000°20'2 2.2
2015-May-24 04:33N 39°25' W 000°17'7 7.0
2015-May-24 03:33N 39°26' W 000°08'2315.4
2015-May-24 02:04N 39°44' E 000°08'1017.2
2015-May-24 01:29N 39°54' E 000°08'6 5.4
2015-May-24 00:24N 39°58' E 000°02'45311.3
2015-May-22 08:09N 43°14' E 009°08'1016.2
2015-May-22 07:33N 43°18' E 009°20'1514.8
2015-May-22 06:34N 43°25' E 009°38'1515.0
2015-May-22 05:33N 43°31' E 009°57'1413.5
2015-May-22 04:33N 43°32' E 010°16'3 3.1
2015-May-22 03:33N 43°35' E 010°18'0 0.0
2015-May-22 02:28N 43°35' E 010°18'0 0.0
2015-May-22 01:31N 43°35' E 010°18'0 0.0
2015-May-22 00:31N 43°35' E 010°18'0 0.0
2015-May-21 23:31N 43°35' E 010°18'0 0.0
2015-May-21 22:28N 43°35' E 010°18'0 0.0
2015-May-21 21:31N 43°35' E 010°18'0 0.0
2015-May-21 20:31N 43°35' E 010°18'0 0.0
2015-May-21 19:28N 43°35' E 010°18'0 0.0
2015-May-21 18:31N 43°35' E 010°18'0 0.0
2015-May-21 17:31N 43°35' E 010°18'0 0.0
2015-May-21 16:31N 43°35' E 010°18'0 0.0
2015-May-21 15:31N 43°35' E 010°18'0 0.5
2015-May-21 14:33N 43°34' E 010°18'6 6.5
2015-May-21 13:33N 43°30' E 010°12'6 5.9
2015-May-21 12:33N 43°31' E 010°04'1413.9
2015-May-21 11:33N 43°41' E 009°50'1515.2
2015-May-21 10:33N 43°50' E 009°34'1615.7
2015-May-21 09:33N 43°59' E 009°16'1817.5
2015-May-21 08:33N 44°09' E 008°56'1615.7
2015-May-21 07:33N 44°22' E 008°42'5 3.3
2015-May-21 06:06N 44°25' E 008°47'0 0.0
2015-May-21 05:12N 44°25' E 008°47'0 0.0
2015-May-21 04:18N 44°25' E 008°47'0 0.0
2015-May-21 03:30N 44°25' E 008°47'0 0.0
2015-May-21 02:30N 44°25' E 008°47'0 0.0
2015-May-21 01:18N 44°25' E 008°47'0 0.0
2015-May-21 00:33N 44°25' E 008°47'0 0.0
2015-May-20 23:21N 44°25' E 008°47'0 0.0
2015-May-20 22:30N 44°25' E 008°47'0 0.0
2015-May-20 21:30N 44°25' E 008°47'0 0.0
2015-May-20 20:12N 44°25' E 008°47'0 0.0
2015-May-20 19:24N 44°25' E 008°47'0 0.0
2015-May-20 18:30N 44°25' E 008°47'0 0.0
2015-May-20 17:18N 44°25' E 008°47'0 0.0
2015-May-20 16:30N 44°25' E 008°47'0 0.0
2015-May-20 15:30N 44°25' E 008°47'0 0.0
2015-May-20 14:30N 44°25' E 008°47'0 0.0
2015-May-20 13:30N 44°25' E 008°47'0 0.0
2015-May-20 12:30N 44°25' E 008°47'0 0.0
2015-May-20 11:30N 44°25' E 008°47'0 0.0
2015-May-20 09:33N 44°25' E 008°47'0 0.0
2015-May-20 08:12N 44°25' E 008°47'0 0.0
2015-May-20 07:24N 44°25' E 008°47'0 0.0
2015-May-20 06:30N 44°25' E 008°47'0 0.0
2015-May-20 05:18N 44°25' E 008°47'0 0.0
2015-May-20 04:30N 44°25' E 008°47'0 0.0
2015-May-20 03:33N 44°25' E 008°47'0 0.0
2015-May-20 02:33N 44°25' E 008°47'0 0.0
2015-May-20 01:33N 44°25' E 008°47'0 0.0
2015-May-20 00:24N 44°25' E 008°47'0 0.0
2015-May-19 23:30N 44°25' E 008°47'0 0.0
2015-May-19 22:30N 44°25' E 008°47'0 0.0
2015-May-19 21:33N 44°25' E 008°47'0 0.0
2015-May-19 20:27N 44°25' E 008°47'0 0.0
2015-May-19 19:33N 44°25' E 008°47'0 0.0
2015-May-19 18:30N 44°25' E 008°47'0 0.0
2015-May-19 17:29N 44°25' E 008°47'0 0.0
2015-May-19 16:32N 44°25' E 008°47'0 0.0
2015-May-19 15:32N 44°25' E 008°47'0 0.0
2015-May-19 14:32N 44°25' E 008°47'0 0.0
2015-May-19 13:04N 44°25' E 008°47'0 0.0
2015-May-19 12:31N 44°25' E 008°47'0 0.0
2015-May-19 11:13N 44°25' E 008°47'0 0.0
2015-May-19 10:31N 44°25' E 008°47'0 0.0
2015-May-19 09:31N 44°25' E 008°47'4 4.0
2015-May-19 08:33N 44°23' E 008°43'9 9.4
2015-May-19 07:33N 44°14' E 008°39'1716.6
2015-May-19 06:33N 44°00' E 008°24'4417.7
2015-May-19 04:03N 43°30' E 007°40'918.4
2015-May-19 03:33N 43°24' E 007°30'1818.2
2015-May-19 02:33N 43°12' E 007°11'1918.0
2015-May-19 01:31N 43°00' E 006°52'2316.8
2015-May-19 00:10N 42°50' E 006°24'3317.7
2015-May-18 22:18N 42°57' E 005°40'3318.4
2015-May-18 20:30N 43°11' E 004°59'1112.0
2015-May-18 19:33N 43°22' E 004°58'6 5.8
2015-May-18 18:31N 43°25' E 004°50'0 0.0
2015-May-18 17:28N 43°25' E 004°50'0 0.0
2015-May-18 16:31N 43°25' E 004°50'0 0.0
2015-May-18 15:28N 43°25' E 004°50'0 0.0
2015-May-18 14:28N 43°25' E 004°50'0 0.0
2015-May-18 13:31N 43°25' E 004°50'  

Dump ship's entire track history